Vremea mâine în Rupea - Romania

Vrei sa afli care e starea vremii acum in Harghita - Romania? Dorim sa iti furnizam starea vremii pentru Harghita - Romania. Starea vremii Harghita - Romania pentru astazi.

Vremea mâine în Rupea

Temperatura minimă:
6.6 °C

Temperatura maximă:
22.5 °C

Mâine va fi: Patchy rain nearby
Precipitații: 86 %
Umiditate: 67%
Viteza maximă vânt mâine:
9.7 km/h

Evoluția vremii in Rupea pe ore mâine

Ora: 03:00
Temperatura: °C
Sansa de precipitatii: %
Ora Descriere Temp Se simte Precipitatii Umiditate Vant
00:00Senin8.5°0%82%E 5.4 KM/H
01:00Senin8.5°7.9°0%83%E 5.4 KM/H
02:00Senin8.1°7.5°0%84%E 5.4 KM/H
03:00Senin7.7°7.2°0%84%E 5 KM/H
04:00Senin7.4°6.7°0%84%E 5 KM/H
05:00Senin6.2°0%85%E 5.4 KM/H
06:00Senin6.6°6.1°0%85%E 4.7 KM/H
07:00Senin8.1°7.9°0%82%E 4 KM/H
08:00Senin12.7°13.1°0%72%ESE 4 KM/H
09:00Senin15.2°15.2°0%64%SE 4.3 KM/H
10:00Senin17.3°17.3°0%59%S 4.3 KM/H
11:00Senin19.1°19.1°0%55%SSW 5.4 KM/H
12:00Senin20.4°20.4°0%51%SW 6.5 KM/H
13:00Senin21.4°21.4°0%47%WSW 7.9 KM/H
14:00Senin22.1°24.3°0%44%WSW 7.9 KM/H
15:00Senin22.5°24.2°0%41%WSW 9 KM/H
16:00Senin22.5°24°0%38%WSW 9.4 KM/H
17:00Senin22.4°24°0%38%WSW 9.7 KM/H
18:00Senin21.9°21.9°0%44%W 9 KM/H
19:00Senin19.4°19.4°0%57%WSW 7.9 KM/H
20:00Patchy rain nearby13.6°13.3°71%74%SW 7.9 KM/H
21:00Patchy rain nearby10.9°10.7°65%84%ESE 5.4 KM/H
22:00Patchy rain nearby10.1°10.1°100%87%E 4.3 KM/H
23:0010°10°0%88%ESE 1.8 KM/H




tutorials